createdAt,value
2018-12-23T00:01:07.070Z,12.27
2018-12-23T00:03:34.583Z,13.13
2018-12-23T00:06:02.035Z,15.40
2018-12-23T00:08:29.717Z,16.63
2018-12-23T00:10:57.213Z,12.97
2018-12-23T00:13:24.727Z,13.97
2018-12-23T00:15:52.055Z,10.00
2018-12-23T00:18:19.645Z,21.50
2018-12-23T00:20:46.997Z,13.30
2018-12-23T00:23:14.469Z,24.17
2018-12-23T00:25:42.071Z,15.27
2018-12-23T00:28:09.556Z,10.43
2018-12-23T00:30:37.063Z,15.50
2018-12-23T00:33:04.487Z,12.37
2018-12-23T00:35:31.813Z,10.00
2018-12-23T00:37:59.334Z,9.43
2018-12-23T00:40:26.898Z,17.03
2018-12-23T00:42:54.340Z,10.30
2018-12-23T00:45:21.927Z,12.33
2018-12-23T00:47:49.673Z,23.40
2018-12-23T00:50:17.123Z,22.33
2018-12-23T00:52:44.529Z,26.13
2018-12-23T00:55:12.060Z,40.90
2018-12-23T00:57:39.491Z,45.17
2018-12-23T01:00:08.819Z,46.63
2018-12-23T01:02:36.447Z,27.20
2018-12-23T01:05:04.806Z,20.57
2018-12-23T01:07:32.283Z,40.57
2018-12-23T01:09:59.871Z,51.70
2018-12-23T01:12:27.303Z,46.27
2018-12-23T01:14:55.017Z,46.47
2018-12-23T01:17:22.603Z,33.83
2018-12-23T01:19:50.130Z,25.20
2018-12-23T01:22:17.719Z,19.90
2018-12-23T01:24:45.223Z,11.50
2018-12-23T01:27:12.659Z,7.33
2018-12-23T01:29:40.171Z,10.07
2018-12-23T01:32:07.711Z,10.27
2018-12-23T01:34:37.112Z,10.43
2018-12-23T01:37:04.535Z,10.67
2018-12-23T01:39:32.056Z,9.50
2018-12-23T01:41:59.500Z,9.13
2018-12-23T01:44:26.967Z,11.37
2018-12-23T01:46:54.436Z,10.97
2018-12-23T01:49:21.951Z,10.80
2018-12-23T01:51:49.607Z,7.50
2018-12-23T01:54:17.158Z,22.10
2018-12-23T01:56:44.621Z,6.83
2018-12-23T01:59:12.089Z,10.50
2018-12-23T02:01:39.577Z,9.07
2018-12-23T02:04:07.115Z,6.70
2018-12-23T02:06:34.604Z,6.63
2018-12-23T02:09:03.411Z,10.47
2018-12-23T02:11:30.795Z,9.33
2018-12-23T02:13:58.282Z,13.20
2018-12-23T02:16:25.672Z,11.03
2018-12-23T02:18:53.153Z,10.80
2018-12-23T02:21:20.829Z,8.07
2018-12-23T02:23:48.332Z,19.33
2018-12-23T02:26:15.761Z,7.90
2018-12-23T02:28:43.215Z,7.60
2018-12-23T02:31:10.711Z,8.70
2018-12-23T02:33:38.174Z,11.57
2018-12-23T02:36:05.503Z,14.03
2018-12-23T02:38:32.979Z,6.13
2018-12-23T02:41:00.424Z,10.63
2018-12-23T02:43:27.908Z,20.67
2018-12-23T02:45:55.424Z,7.30
2018-12-23T02:48:26.140Z,12.07
2018-12-23T02:50:53.500Z,6.60
2018-12-23T02:53:20.830Z,13.50
2018-12-23T02:55:48.503Z,10.70
2018-12-23T02:58:15.830Z,12.20
2018-12-23T03:00:43.343Z,7.50
2018-12-23T03:03:10.928Z,11.70
2018-12-23T03:05:38.375Z,10.33
2018-12-23T03:08:05.857Z,8.10
2018-12-23T03:10:33.462Z,9.27
2018-12-23T03:13:01.032Z,9.20
2018-12-23T03:15:28.420Z,12.37
2018-12-23T03:17:55.885Z,12.60
2018-12-23T03:20:23.354Z,14.53
2018-12-23T03:22:50.996Z,9.07
2018-12-23T03:25:18.664Z,14.47
2018-12-23T03:27:46.335Z,23.23
2018-12-23T03:30:13.998Z,11.33
2018-12-23T03:32:41.615Z,14.30
2018-12-23T03:35:09.123Z,11.50
2018-12-23T03:37:36.731Z,10.07
2018-12-23T03:40:04.534Z,8.23
2018-12-23T03:42:32.035Z,8.27
2018-12-23T03:44:59.807Z,11.77
2018-12-23T03:47:27.243Z,9.80
2018-12-23T03:49:54.889Z,15.50
2018-12-23T03:52:22.334Z,15.30
2018-12-23T03:54:49.975Z,8.53
2018-12-23T03:57:17.747Z,14.70
2018-12-23T03:59:45.271Z,12.40
2018-12-23T04:02:12.713Z,16.33
2018-12-23T04:04:40.271Z,8.43
2018-12-23T04:07:07.713Z,13.30
2018-12-23T04:09:35.302Z,7.40
2018-12-23T04:12:03.077Z,11.23
2018-12-23T04:14:33.763Z,19.97
2018-12-23T04:17:01.219Z,14.00
2018-12-23T04:19:28.689Z,13.60
2018-12-23T04:21:56.345Z,15.07
2018-12-23T04:24:23.840Z,11.00
2018-12-23T04:26:51.157Z,14.07
2018-12-23T04:29:18.721Z,17.87
2018-12-23T04:31:46.176Z,16.33
2018-12-23T04:34:13.635Z,8.80
2018-12-23T04:36:41.107Z,11.70
2018-12-23T04:39:08.752Z,12.43
2018-12-23T04:41:36.190Z,9.60
2018-12-23T04:44:03.695Z,12.10
2018-12-23T04:46:31.042Z,11.80
2018-12-23T04:48:58.528Z,14.90
2018-12-23T04:51:26.044Z,12.53
2018-12-23T04:53:53.642Z,11.77
2018-12-23T04:56:21.147Z,9.40
2018-12-23T04:58:49.008Z,11.80
2018-12-23T05:01:16.544Z,15.33
2018-12-23T05:03:43.928Z,13.80
2018-12-23T05:06:11.425Z,12.20
2018-12-23T05:08:38.868Z,11.53
2018-12-23T05:11:06.323Z,8.50
2018-12-23T05:13:34.435Z,11.93
2018-12-23T05:16:02.173Z,15.40
2018-12-23T05:18:29.697Z,10.20
2018-12-23T05:20:57.050Z,10.17
2018-12-23T05:23:24.421Z,12.43
2018-12-23T05:25:51.918Z,10.43
2018-12-23T05:28:20.876Z,7.30
2018-12-23T05:30:48.565Z,14.83
2018-12-23T05:33:16.023Z,8.63
2018-12-23T05:35:43.495Z,13.10
2018-12-23T05:38:10.928Z,7.60
2018-12-23T05:40:38.392Z,19.07
2018-12-23T05:43:06.007Z,16.27
2018-12-23T05:45:33.457Z,8.97
2018-12-23T05:48:00.960Z,5.80
2018-12-23T05:50:28.391Z,8.77
2018-12-23T05:52:55.855Z,18.37
2018-12-23T05:55:23.243Z,10.50
2018-12-23T05:57:51.381Z,12.60
2018-12-23T06:00:18.807Z,6.23
2018-12-23T06:02:46.272Z,7.57
2018-12-23T06:05:13.734Z,13.27
2018-12-23T06:07:41.185Z,14.50
2018-12-23T06:10:11.483Z,6.83
2018-12-23T06:12:38.964Z,7.23
2018-12-23T06:15:06.520Z,11.37
2018-12-23T06:17:33.985Z,12.20
2018-12-23T06:20:01.476Z,8.83
2018-12-23T06:22:28.948Z,7.53
2018-12-23T06:24:56.420Z,10.43
2018-12-23T06:27:24.001Z,11.50
2018-12-23T06:29:51.439Z,8.37
2018-12-23T06:32:18.789Z,7.67
2018-12-23T06:34:46.321Z,11.47
2018-12-23T06:37:13.664Z,11.20
2018-12-23T06:39:41.118Z,14.13
2018-12-23T06:42:08.621Z,10.23
2018-12-23T06:44:36.057Z,8.23
2018-12-23T06:47:03.641Z,9.50
2018-12-23T06:49:31.249Z,9.10
2018-12-23T06:51:58.747Z,12.43
2018-12-23T06:54:26.286Z,9.47
2018-12-23T06:56:53.815Z,9.60
2018-12-23T06:59:21.297Z,9.63
2018-12-23T07:01:48.687Z,11.93
2018-12-23T07:04:16.174Z,10.80
2018-12-23T07:06:43.607Z,10.63
2018-12-23T07:09:11.090Z,6.90
2018-12-23T07:11:45.408Z,7.60
2018-12-23T07:14:13.023Z,12.00
2018-12-23T07:16:40.620Z,9.20
2018-12-23T07:19:07.952Z,7.53
2018-12-23T07:21:35.433Z,5.67
2018-12-23T07:24:02.969Z,7.80
2018-12-23T07:26:30.451Z,7.00
2018-12-23T07:28:57.938Z,13.63
2018-12-23T07:31:25.404Z,16.63
2018-12-23T07:33:53.016Z,6.83
2018-12-23T07:36:20.572Z,9.20
2018-12-23T07:38:48.052Z,9.93
2018-12-23T07:41:15.548Z,10.40
2018-12-23T07:43:43.236Z,13.27
2018-12-23T07:46:10.736Z,7.50
2018-12-23T07:48:38.268Z,11.00
2018-12-23T07:51:05.817Z,13.23
2018-12-23T07:53:33.306Z,11.60
2018-12-23T07:56:00.824Z,11.27
2018-12-23T07:58:28.484Z,8.67
2018-12-23T08:00:55.960Z,10.53
2018-12-23T08:03:23.572Z,14.30
2018-12-23T08:05:51.043Z,10.60
2018-12-23T08:08:18.547Z,6.90
2018-12-23T08:10:46.129Z,11.13
2018-12-23T08:13:13.670Z,12.43
2018-12-23T08:15:41.229Z,9.30
2018-12-23T08:18:08.876Z,9.67
2018-12-23T08:20:36.253Z,11.40
2018-12-23T08:23:03.985Z,7.83
2018-12-23T08:25:35.621Z,13.50
2018-12-23T08:28:01.346Z,18.07
2018-12-23T08:30:29.016Z,9.30
2018-12-23T08:32:56.745Z,13.70
2018-12-23T08:35:24.261Z,12.37
2018-12-23T08:37:51.806Z,11.10
2018-12-23T08:40:19.295Z,10.07
2018-12-23T08:42:46.674Z,5.90
2018-12-23T08:45:14.186Z,7.40
2018-12-23T08:47:41.666Z,9.33
2018-12-23T08:50:09.104Z,9.83
2018-12-23T08:52:36.572Z,14.43
2018-12-23T08:55:04.199Z,14.87
2018-12-23T08:57:31.676Z,10.83
2018-12-23T08:59:59.276Z,12.40
2018-12-23T09:03:18.942Z,10.20
2018-12-23T09:06:11.511Z,12.50
2018-12-23T09:08:58.444Z,9.50
2018-12-23T09:11:26.099Z,11.53
2018-12-23T09:14:13.031Z,10.93
2018-12-23T09:16:40.662Z,10.73
2018-12-23T09:19:19.873Z,10.90
2018-12-23T09:21:47.494Z,13.43
2018-12-23T09:24:15.030Z,10.17
2018-12-23T09:26:42.834Z,16.47
2018-12-23T09:29:10.948Z,13.37
2018-12-23T09:31:38.600Z,9.60
2018-12-23T09:34:25.610Z,13.43
2018-12-23T09:36:53.226Z,11.07
2018-12-23T09:42:37.248Z,13.60
2018-12-23T09:45:36.817Z,17.00
2018-12-23T09:48:04.462Z,14.40
2018-12-23T09:53:32.034Z,27.60
2018-12-23T09:55:59.995Z,16.83
2018-12-23T09:58:27.657Z,16.50
2018-12-23T10:00:55.259Z,15.70
2018-12-23T10:03:22.918Z,15.80
2018-12-23T10:05:50.450Z,22.73
2018-12-23T10:08:18.132Z,11.40
2018-12-23T10:11:05.391Z,10.90
2018-12-23T10:13:33.083Z,11.83
2018-12-23T10:16:00.702Z,16.67
2018-12-23T10:18:48.131Z,15.90
2018-12-23T10:24:24.290Z,12.83
2018-12-23T10:27:11.846Z,15.10
2018-12-23T10:33:00.162Z,15.50
2018-12-23T10:35:27.834Z,10.70
2018-12-23T10:37:55.499Z,12.33
2018-12-23T10:40:23.804Z,14.47
2018-12-23T10:42:51.446Z,16.57
2018-12-23T10:45:19.020Z,18.63
2018-12-23T10:47:46.584Z,18.43
2018-12-23T10:50:14.576Z,15.67
2018-12-23T10:52:42.115Z,15.03
2018-12-23T10:55:09.826Z,12.07
2018-12-23T10:57:37.489Z,20.47
2018-12-23T11:00:46.851Z,17.30
2018-12-23T11:03:14.371Z,24.53
2018-12-23T11:06:01.305Z,13.60
2018-12-23T11:08:28.853Z,14.43
2018-12-23T11:10:56.525Z,13.13
2018-12-23T11:13:24.218Z,17.83
2018-12-23T11:15:51.918Z,17.00
2018-12-23T11:18:38.918Z,15.30
2018-12-23T11:21:06.570Z,13.80
2018-12-23T11:23:34.213Z,22.13
2018-12-23T11:26:01.799Z,15.73
2018-12-23T11:28:29.446Z,17.53
2018-12-23T11:30:57.113Z,18.60
2018-12-23T11:33:24.776Z,25.33
2018-12-23T11:35:52.366Z,19.80
2018-12-23T11:38:19.992Z,17.77
2018-12-23T11:41:07.016Z,17.50
2018-12-23T11:43:34.643Z,16.37
2018-12-23T11:46:02.309Z,15.60
2018-12-23T11:48:29.989Z,15.50
2018-12-23T11:50:57.657Z,17.03
2018-12-23T11:53:25.312Z,16.37
2018-12-23T11:55:53.139Z,20.53
2018-12-23T12:01:19.658Z,15.20
2018-12-23T12:04:06.649Z,19.87
2018-12-23T12:06:34.355Z,18.00
2018-12-23T12:11:58.185Z,16.67
2018-12-23T12:17:05.838Z,18.97
2018-12-23T12:25:34.919Z,15.97
2018-12-23T12:28:02.596Z,16.77
2018-12-23T12:30:49.638Z,18.30
2018-12-23T12:33:17.341Z,22.93
2018-12-23T12:36:04.242Z,16.80
2018-12-23T12:38:31.901Z,27.00
2018-12-23T12:40:59.542Z,25.30
2018-12-23T12:43:27.645Z,18.57
2018-12-23T12:46:14.632Z,30.27
2018-12-23T12:48:42.320Z,18.63
2018-12-23T12:51:09.992Z,25.53
2018-12-23T12:53:37.682Z,20.63
2018-12-23T12:56:05.699Z,19.27
2018-12-23T12:58:33.363Z,33.37
2018-12-23T13:01:01.017Z,23.00
2018-12-23T13:03:28.651Z,19.93
2018-12-23T13:06:36.766Z,13.07
2018-12-23T13:17:28.250Z,25.83
2018-12-23T13:20:15.243Z,25.23
2018-12-23T13:25:36.393Z,19.50
2018-12-23T13:28:04.101Z,26.87
2018-12-23T13:30:31.782Z,22.00
2018-12-23T13:32:59.439Z,20.37
2018-12-23T13:35:27.118Z,21.00
2018-12-23T13:37:54.807Z,22.90
2018-12-23T13:44:46.664Z,10.13
2018-12-23T13:47:41.392Z,16.70
2018-12-23T13:50:47.664Z,19.77
2018-12-23T13:53:53.986Z,31.17
2018-12-23T13:57:14.619Z,14.50
2018-12-23T14:00:21.242Z,17.90
2018-12-23T14:03:35.743Z,11.40
2018-12-23T14:06:31.324Z,26.47
2018-12-23T14:09:37.958Z,15.13
2018-12-23T14:12:05.666Z,21.70
2018-12-23T14:14:33.289Z,17.43
2018-12-23T14:17:01.302Z,15.67
2018-12-23T14:19:28.956Z,15.43
2018-12-23T14:21:56.525Z,15.47
2018-12-23T14:24:24.262Z,16.70
2018-12-23T14:26:51.838Z,16.93
2018-12-23T14:30:00.209Z,12.97
2018-12-23T14:32:27.906Z,9.53
2018-12-23T14:34:55.916Z,15.57
2018-12-23T14:37:42.884Z,17.30
2018-12-23T14:40:10.521Z,8.50
2018-12-23T14:42:38.483Z,15.77
2018-12-23T14:45:06.129Z,12.37
2018-12-23T14:47:53.038Z,9.93
2018-12-23T14:50:21.042Z,9.40
2018-12-23T14:52:48.567Z,11.00
2018-12-23T14:55:16.625Z,15.20
2018-12-23T15:00:43.600Z,5.57
2018-12-23T15:03:11.181Z,13.00
2018-12-23T15:05:39.095Z,9.93
2018-12-23T15:08:07.231Z,11.13
2018-12-23T15:10:36.645Z,5.90
2018-12-23T15:13:04.389Z,6.40
2018-12-23T15:18:13.880Z,12.23
2018-12-23T15:20:52.974Z,8.97
2018-12-23T15:23:20.724Z,7.70
2018-12-23T15:25:48.355Z,11.40
2018-12-23T15:31:15.630Z,4.67
2018-12-23T15:34:02.774Z,6.67
2018-12-23T15:39:23.731Z,9.73
2018-12-23T15:41:51.419Z,10.30
2018-12-23T15:44:19.087Z,9.77
2018-12-23T15:46:46.724Z,8.47
2018-12-23T15:49:14.407Z,6.03
2018-12-23T15:51:42.030Z,7.20
2018-12-23T15:54:09.680Z,4.17
2018-12-23T15:56:56.833Z,6.60
2018-12-23T15:59:24.909Z,9.90
2018-12-23T16:01:53.506Z,8.43
2018-12-23T16:04:21.437Z,10.90
2018-12-23T16:06:49.073Z,9.20
2018-12-23T16:09:16.744Z,7.00
2018-12-23T16:11:57.330Z,8.60
2018-12-23T16:14:25.069Z,5.93
2018-12-23T16:16:52.710Z,7.67
2018-12-23T16:19:20.410Z,9.50
2018-12-23T16:21:47.940Z,8.30
2018-12-23T16:24:35.111Z,9.27
2018-12-23T16:27:02.652Z,7.27
2018-12-23T16:29:49.663Z,10.30
2018-12-23T16:32:17.319Z,9.10
2018-12-23T16:34:45.035Z,14.53
2018-12-23T16:37:32.358Z,15.53
2018-12-23T16:40:00.369Z,8.50
2018-12-23T16:42:27.923Z,9.73
2018-12-23T16:44:55.612Z,10.67
2018-12-23T16:47:23.274Z,15.30
2018-12-23T16:49:50.951Z,14.23
2018-12-23T16:52:18.648Z,11.07
2018-12-23T16:54:46.327Z,10.73
2018-12-23T16:57:14.014Z,11.10
2018-12-23T17:02:43.019Z,17.80
2018-12-23T17:05:10.703Z,13.90
2018-12-23T17:07:57.747Z,14.60
2018-12-23T17:10:25.400Z,11.40
2018-12-23T17:12:53.054Z,13.67
2018-12-23T17:15:20.978Z,11.20
2018-12-23T17:17:48.975Z,12.70
2018-12-23T17:20:17.142Z,12.23
2018-12-23T17:22:45.193Z,10.03
2018-12-23T17:25:12.826Z,14.17
2018-12-23T17:27:40.515Z,15.47
2018-12-23T17:33:10.181Z,16.37
2018-12-23T17:35:38.185Z,14.50
2018-12-23T17:38:06.190Z,15.97
2018-12-23T17:40:34.220Z,16.50
2018-12-23T17:43:01.889Z,16.53
2018-12-23T17:45:29.576Z,11.03
2018-12-23T17:47:57.656Z,16.50
2018-12-23T17:50:25.286Z,14.63
2018-12-23T17:53:04.382Z,12.27
2018-12-23T17:55:32.015Z,10.63
2018-12-23T17:57:59.689Z,12.80
2018-12-23T18:00:27.266Z,23.13
2018-12-23T18:02:54.951Z,15.13
2018-12-23T18:05:22.608Z,15.47
2018-12-23T18:07:50.292Z,11.70
2018-12-23T18:10:25.006Z,12.23
2018-12-23T18:12:57.195Z,15.30
2018-12-23T18:15:25.168Z,13.60
2018-12-23T18:18:00.531Z,10.33
2018-12-23T18:20:28.179Z,10.23
2018-12-23T18:22:56.179Z,12.43
2018-12-23T18:25:43.239Z,10.93
2018-12-23T18:28:30.201Z,10.93
2018-12-23T18:30:57.901Z,14.07
2018-12-23T18:33:25.535Z,13.40
2018-12-23T18:36:05.189Z,13.53
2018-12-23T18:38:52.195Z,9.97
2018-12-23T18:41:19.889Z,11.00
2018-12-23T18:43:47.579Z,11.20
2018-12-23T18:46:15.266Z,13.60
2018-12-23T18:48:43.004Z,13.67
2018-12-23T18:51:10.709Z,12.60
2018-12-23T18:57:00.590Z,14.13
2018-12-23T19:05:48.601Z,14.03
2018-12-23T19:08:49.391Z,15.47
2018-12-23T19:11:55.734Z,16.20
2018-12-23T19:15:02.093Z,13.60
2018-12-23T19:18:08.515Z,12.77
2018-12-23T19:21:15.099Z,14.33
2018-12-23T19:27:26.027Z,12.37
2018-12-23T19:30:32.717Z,12.23
2018-12-23T19:33:39.132Z,10.33
2018-12-23T19:36:45.522Z,11.33
2018-12-23T19:39:52.224Z,13.10
2018-12-23T19:43:08.859Z,15.53
2018-12-23T19:46:15.238Z,13.70
2018-12-23T19:49:21.594Z,14.90
2018-12-23T19:52:28.164Z,16.80
2018-12-23T19:55:34.490Z,24.77
2018-12-23T19:58:40.920Z,14.83
2018-12-23T20:01:47.283Z,17.00
2018-12-23T20:08:22.674Z,16.33
2018-12-23T20:11:29.047Z,16.93
2018-12-23T20:14:35.457Z,18.63
2018-12-23T20:20:43.971Z,15.83
2018-12-23T20:23:50.578Z,13.93
2018-12-23T20:26:42.641Z,10.40
2018-12-23T20:29:48.945Z,14.60
2018-12-23T20:36:00.724Z,13.63
2018-12-23T20:38:40.900Z,10.90
2018-12-23T20:41:47.524Z,13.10
2018-12-23T20:44:54.111Z,10.67
2018-12-23T20:48:00.475Z,13.27
2018-12-23T20:51:06.833Z,11.63
2018-12-23T20:54:13.203Z,10.00
2018-12-23T20:57:19.590Z,8.73
2018-12-23T21:00:26.380Z,7.93
2018-12-23T21:03:32.694Z,9.40
2018-12-23T21:06:39.003Z,7.10
2018-12-23T21:13:28.361Z,7.17
2018-12-23T21:16:34.609Z,10.80
2018-12-23T21:19:41.160Z,5.90
2018-12-23T21:22:47.539Z,5.57
2018-12-23T21:25:53.922Z,8.53
2018-12-23T21:29:00.432Z,7.90
2018-12-23T21:32:06.867Z,7.10
2018-12-23T21:38:26.742Z,3.30
2018-12-23T21:41:33.169Z,3.00
2018-12-23T21:44:39.629Z,3.30
2018-12-23T21:47:45.955Z,3.87
2018-12-23T21:54:18.386Z,5.47
2018-12-23T21:57:24.763Z,5.93
2018-12-23T22:00:31.110Z,5.37
2018-12-23T22:06:33.361Z,4.03
2018-12-23T22:09:40.099Z,4.13
2018-12-23T22:12:46.471Z,6.67
2018-12-23T22:15:33.518Z,3.60
2018-12-23T22:18:01.226Z,3.30
2018-12-23T22:24:00.621Z,2.10
2018-12-23T22:26:28.299Z,1.70
2018-12-23T22:28:55.924Z,1.50
2018-12-23T22:31:23.645Z,2.90
2018-12-23T22:33:51.291Z,2.40
2018-12-23T22:36:18.959Z,1.50
2018-12-23T22:38:46.635Z,3.70
2018-12-23T22:41:29.493Z,1.37
2018-12-23T22:43:57.492Z,1.23
2018-12-23T22:46:25.135Z,3.20
2018-12-23T22:48:52.950Z,2.33
2018-12-23T22:51:20.630Z,2.03
2018-12-23T22:53:48.270Z,1.23
2018-12-23T22:56:15.954Z,1.00
2018-12-23T22:58:43.643Z,1.00
2018-12-23T23:01:32.731Z,4.27
2018-12-23T23:04:00.969Z,2.07
2018-12-23T23:06:28.711Z,1.17
2018-12-23T23:08:56.392Z,1.93
2018-12-23T23:11:24.147Z,2.30
2018-12-23T23:13:51.733Z,1.67
2018-12-23T23:16:19.405Z,1.00
2018-12-23T23:18:47.209Z,1.50
2018-12-23T23:21:14.883Z,2.60
2018-12-23T23:23:42.861Z,2.40
2018-12-23T23:26:10.878Z,1.00
2018-12-23T23:28:39.646Z,1.90
2018-12-23T23:31:07.363Z,1.80
2018-12-23T23:33:35.146Z,1.10
2018-12-23T23:36:02.812Z,4.40
2018-12-23T23:38:30.870Z,11.73
2018-12-23T23:40:58.924Z,4.20
2018-12-23T23:43:26.588Z,1.83
2018-12-23T23:45:54.262Z,1.53
2018-12-23T23:48:21.992Z,1.50
2018-12-23T23:50:49.669Z,6.30
2018-12-23T23:53:17.661Z,42.23
2018-12-23T23:55:45.487Z,17.20
2018-12-23T23:58:13.119Z,7.17
